Waters Bluff, Texas
Current Conditions -  °F | °C
As of 2:53 AM on Thursday 27 Nov 2014 (Local Time) from KTYR Reporting Station
Clear Clear  
Wind Chill: 40°   Ceiling: Unl
Heat Index: 45°   Visibility: 10mi
Dew Point: 29°   Wind: 9mph
Humidity: 53%   Direction: 10°N
Pressure: 30.41"   Gusts: NA
Location:  32.4644°N, 95.1125°W
Report Text: KTYR 270853Z 01008KT 10SM CLR 07/M02 A3041 RMK AO2 SLP297 T00721017 51019
Loading
Personal Weather Stations






























Interactive Weather Map New forecast layout! Learn more

10-Day Weather Forecast

Advertisements
Track Severe Weather on mobile